createdAt,value
2019-02-09T00:02:09.022Z,8.51
2019-02-09T00:04:39.505Z,8.54
2019-02-09T00:07:09.955Z,8.52
2019-02-09T00:09:40.462Z,8.52
2019-02-09T00:12:10.940Z,8.63
2019-02-09T00:14:41.406Z,8.64
2019-02-09T00:17:11.899Z,8.60
2019-02-09T00:19:42.380Z,8.59
2019-02-09T00:22:12.842Z,8.53
2019-02-09T00:24:43.372Z,8.42
2019-02-09T00:27:13.857Z,8.38
2019-02-09T00:29:46.264Z,8.34
2019-02-09T00:32:16.520Z,8.30
2019-02-09T00:34:46.987Z,8.18
2019-02-09T00:37:17.455Z,8.13
2019-02-09T00:39:47.949Z,8.10
2019-02-09T00:42:18.457Z,8.10
2019-02-09T00:44:48.904Z,8.05
2019-02-09T00:47:19.389Z,8.01
2019-02-09T00:49:49.863Z,7.93
2019-02-09T00:52:20.326Z,7.89
2019-02-09T00:54:50.887Z,7.86
2019-02-09T00:57:21.363Z,7.77
2019-02-09T00:59:54.183Z,7.75
2019-02-09T01:02:24.022Z,7.71
2019-02-09T01:04:54.466Z,7.70
2019-02-09T01:07:25.045Z,7.65
2019-02-09T01:09:55.552Z,7.67
2019-02-09T01:12:26.024Z,7.64
2019-02-09T01:14:56.528Z,7.60
2019-02-09T01:17:26.993Z,7.51
2019-02-09T01:19:57.464Z,7.55
2019-02-09T01:22:27.927Z,7.52
2019-02-09T01:24:58.389Z,7.47
2019-02-09T01:27:28.882Z,7.54
2019-02-09T01:30:02.421Z,7.55
2019-02-09T01:32:31.555Z,7.55
2019-02-09T01:35:01.999Z,7.50
2019-02-09T01:37:32.479Z,7.51
2019-02-09T01:40:02.967Z,7.44
2019-02-09T01:42:33.431Z,7.40
2019-02-09T01:45:04.835Z,7.41
2019-02-09T01:47:35.321Z,7.41
2019-02-09T01:50:09.004Z,7.38
2019-02-09T01:52:39.467Z,7.36
2019-02-09T01:55:11.112Z,7.34
2019-02-09T01:57:41.600Z,7.30
2019-02-09T02:00:19.011Z,7.30
2019-02-09T02:02:49.981Z,7.23
2019-02-09T02:05:22.064Z,7.26
2019-02-09T02:07:52.932Z,7.21
2019-02-09T02:10:42.545Z,7.20
2019-02-09T02:13:13.223Z,7.16
2019-02-09T02:15:43.933Z,7.22
2019-02-09T02:18:14.509Z,7.21
2019-02-09T02:20:45.019Z,7.24
2019-02-09T02:23:15.501Z,7.22
2019-02-09T02:25:45.982Z,7.19
2019-02-09T02:28:16.468Z,7.13
2019-02-09T02:30:46.919Z,7.15
2019-02-09T02:33:17.395Z,7.17
2019-02-09T02:35:47.887Z,7.19
2019-02-09T02:38:18.355Z,7.17
2019-02-09T02:40:48.831Z,7.17
2019-02-09T02:43:19.306Z,7.17
2019-02-09T02:45:49.807Z,7.22
2019-02-09T02:48:20.287Z,7.22
2019-02-09T02:50:50.794Z,7.25
2019-02-09T02:53:21.263Z,7.28
2019-02-09T02:55:51.741Z,7.23
2019-02-09T02:58:22.253Z,7.25
2019-02-09T03:00:52.744Z,7.23
2019-02-09T03:03:23.238Z,7.25
2019-02-09T03:05:53.734Z,7.29
2019-02-09T03:08:24.206Z,7.30
2019-02-09T03:10:54.693Z,7.30
2019-02-09T03:13:25.162Z,7.33
2019-02-09T03:15:55.714Z,7.31
2019-02-09T03:18:26.183Z,7.32
2019-02-09T03:20:56.709Z,7.37
2019-02-09T03:23:27.161Z,7.47
2019-02-09T03:25:57.627Z,7.46
2019-02-09T03:28:28.116Z,7.40
2019-02-09T03:30:58.578Z,7.44
2019-02-09T03:33:29.100Z,7.42
2019-02-09T03:35:59.633Z,7.44
2019-02-09T03:38:30.081Z,7.44
2019-02-09T03:41:00.537Z,7.47
2019-02-09T03:43:31.030Z,7.47
2019-02-09T03:46:01.511Z,7.46
2019-02-09T03:48:31.973Z,7.44
2019-02-09T03:51:02.494Z,7.41
2019-02-09T03:53:32.990Z,7.42
2019-02-09T03:56:03.453Z,7.40
2019-02-09T03:58:34.071Z,7.43
2019-02-09T04:01:04.960Z,7.38
2019-02-09T04:03:35.628Z,7.39
2019-02-09T04:06:06.117Z,7.40
2019-02-09T04:08:36.576Z,7.43
2019-02-09T04:11:07.048Z,7.33
2019-02-09T04:13:37.554Z,7.36
2019-02-09T04:16:08.055Z,7.33
2019-02-09T04:18:38.466Z,7.39
2019-02-09T04:21:08.982Z,7.41
2019-02-09T04:23:39.434Z,7.40
2019-02-09T04:26:09.893Z,7.47
2019-02-09T04:28:40.376Z,7.36
2019-02-09T04:31:10.834Z,7.35
2019-02-09T04:33:41.299Z,7.45
2019-02-09T04:36:11.781Z,7.50
2019-02-09T04:38:42.251Z,7.45
2019-02-09T04:41:12.700Z,7.45
2019-02-09T04:43:43.293Z,7.56
2019-02-09T04:46:13.783Z,7.49
2019-02-09T04:48:44.230Z,7.48
2019-02-09T04:51:14.774Z,7.45
2019-02-09T04:53:45.177Z,7.46
2019-02-09T04:56:15.727Z,7.44
2019-02-09T04:58:46.182Z,7.51
2019-02-09T05:01:16.638Z,7.53
2019-02-09T05:03:47.135Z,7.49
2019-02-09T05:06:17.576Z,7.53
2019-02-09T05:08:48.084Z,7.52
2019-02-09T05:11:18.568Z,7.56
2019-02-09T05:13:49.017Z,7.60
2019-02-09T05:16:19.463Z,7.56
2019-02-09T05:18:49.941Z,7.57
2019-02-09T05:21:20.421Z,7.51
2019-02-09T05:23:50.864Z,7.52
2019-02-09T05:26:21.344Z,7.53
2019-02-09T05:28:51.800Z,7.48
2019-02-09T05:31:23.451Z,7.52
2019-02-09T05:33:54.198Z,7.54
2019-02-09T05:36:24.650Z,7.53
2019-02-09T05:38:55.097Z,7.47
2019-02-09T05:41:25.587Z,7.46
2019-02-09T05:43:56.185Z,7.51
2019-02-09T05:46:26.692Z,7.52
2019-02-09T05:48:57.338Z,7.51
2019-02-09T05:51:30.291Z,7.49
2019-02-09T05:53:59.987Z,7.60
2019-02-09T05:56:30.515Z,7.53
2019-02-09T05:59:00.979Z,7.57
2019-02-09T06:01:32.549Z,7.67
2019-02-09T06:04:03.246Z,7.61
2019-02-09T06:06:33.687Z,7.54
2019-02-09T06:09:05.704Z,7.55
2019-02-09T06:11:36.185Z,7.51
2019-02-09T06:14:06.970Z,7.55
2019-02-09T06:16:37.398Z,7.53
2019-02-09T06:19:07.948Z,7.48
2019-02-09T06:21:38.404Z,7.30
2019-02-09T06:24:08.855Z,7.10
2019-02-09T06:26:39.364Z,7.01
2019-02-09T06:29:09.807Z,6.83
2019-02-09T06:31:41.266Z,6.79
2019-02-09T06:34:11.930Z,6.67
2019-02-09T06:36:42.404Z,6.68
2019-02-09T06:39:12.867Z,6.74
2019-02-09T06:41:43.344Z,6.76
2019-02-09T06:44:14.186Z,6.72
2019-02-09T06:46:44.650Z,6.69
2019-02-09T06:49:15.125Z,6.67
2019-02-09T06:51:45.576Z,6.75
2019-02-09T06:54:16.187Z,6.75
2019-02-09T06:56:46.606Z,6.74
2019-02-09T06:59:17.070Z,6.81
2019-02-09T07:01:48.810Z,6.92
2019-02-09T07:04:19.957Z,6.94
2019-02-09T07:06:50.421Z,6.93
2019-02-09T07:09:20.911Z,6.93
2019-02-09T07:11:51.595Z,6.91
2019-02-09T07:14:22.040Z,6.90
2019-02-09T07:16:52.495Z,6.86
2019-02-09T07:19:22.978Z,6.86
2019-02-09T07:21:53.432Z,6.84
2019-02-09T07:24:23.887Z,6.94
2019-02-09T07:26:54.344Z,7.03
2019-02-09T07:29:24.797Z,6.97
2019-02-09T07:31:56.664Z,6.94
2019-02-09T07:34:27.643Z,6.97
2019-02-09T07:36:58.222Z,7.04
2019-02-09T07:39:28.704Z,7.12
2019-02-09T07:41:59.314Z,7.17
2019-02-09T07:44:29.880Z,7.26
2019-02-09T07:47:00.382Z,7.28
2019-02-09T07:49:30.815Z,7.22
2019-02-09T07:52:01.305Z,7.27
2019-02-09T07:54:31.776Z,7.33
2019-02-09T07:57:02.221Z,7.39
2019-02-09T07:59:32.772Z,7.43
2019-02-09T08:02:04.727Z,7.44
2019-02-09T08:04:35.524Z,7.42
2019-02-09T08:07:06.095Z,7.45
2019-02-09T08:09:36.651Z,7.51
2019-02-09T08:12:07.802Z,7.49
2019-02-09T08:14:38.264Z,7.54
2019-02-09T08:17:08.860Z,7.57
2019-02-09T08:19:39.365Z,7.59
2019-02-09T08:22:09.862Z,7.65
2019-02-09T08:24:40.326Z,7.60
2019-02-09T08:27:10.891Z,7.62
2019-02-09T08:29:41.365Z,7.66
2019-02-09T08:32:13.031Z,7.57
2019-02-09T08:34:43.694Z,7.56
2019-02-09T08:37:14.158Z,7.60
2019-02-09T08:39:44.645Z,7.76
2019-02-09T08:42:15.115Z,7.90
2019-02-09T08:44:45.694Z,7.92
2019-02-09T08:47:16.126Z,8.16
2019-02-09T08:49:46.668Z,8.16
2019-02-09T08:52:17.130Z,8.28
2019-02-09T08:54:47.593Z,8.26
2019-02-09T08:57:18.106Z,8.38
2019-02-09T08:59:48.582Z,8.40
2019-02-09T09:02:20.701Z,8.43
2019-02-09T09:04:51.434Z,8.41
2019-02-09T09:07:21.895Z,8.25
2019-02-09T09:09:52.421Z,8.18
2019-02-09T09:12:22.910Z,8.09
2019-02-09T09:14:53.377Z,8.19
2019-02-09T09:17:23.828Z,8.19
2019-02-09T09:19:54.309Z,8.24
2019-02-09T09:22:26.585Z,8.28
2019-02-09T09:24:57.097Z,8.32
2019-02-09T09:27:27.639Z,8.36
2019-02-09T09:29:58.095Z,8.43
2019-02-09T09:32:28.998Z,8.44
2019-02-09T09:34:59.486Z,8.53
2019-02-09T09:37:29.992Z,8.45
2019-02-09T09:40:00.509Z,8.46
2019-02-09T09:42:31.027Z,8.36
2019-02-09T09:45:01.483Z,8.36
2019-02-09T09:47:31.943Z,8.34
2019-02-09T09:50:02.558Z,8.34
2019-02-09T10:12:26.255Z,8.92
2019-02-09T10:14:56.990Z,8.95
2019-02-09T10:17:27.525Z,8.83
2019-02-09T10:19:58.251Z,8.70
2019-02-09T10:22:28.751Z,8.67
2019-02-09T10:24:59.299Z,8.72
2019-02-09T10:27:29.842Z,8.81
2019-02-09T10:30:00.414Z,8.89
2019-02-09T10:32:30.848Z,8.85
2019-02-09T10:35:01.458Z,8.85
2019-02-09T10:37:32.105Z,8.90
2019-02-09T10:40:02.760Z,9.03
2019-02-09T10:42:33.493Z,9.01
2019-02-09T10:45:04.191Z,8.98
2019-02-09T10:47:34.760Z,9.09
2019-02-09T10:50:07.159Z,9.06
2019-02-09T10:52:37.799Z,9.18
2019-02-09T10:55:09.871Z,9.21
2019-02-09T10:57:41.666Z,9.34
2019-02-09T11:00:20.622Z,9.37
2019-02-09T11:02:52.310Z,9.31
2019-02-09T11:05:22.987Z,9.23
2019-02-09T11:07:53.686Z,9.07
2019-02-09T11:10:25.423Z,9.00
2019-02-09T11:12:56.138Z,9.03
2019-02-09T11:15:26.740Z,8.96
2019-02-09T11:17:57.381Z,8.94
2019-02-09T11:20:27.983Z,8.99
2019-02-09T11:22:58.484Z,8.96
2019-02-09T11:25:30.184Z,9.04
2019-02-09T11:28:00.706Z,9.07
2019-02-09T11:30:31.961Z,9.17
2019-02-09T11:33:02.737Z,9.13
2019-02-09T11:35:33.312Z,9.13
2019-02-09T11:38:04.887Z,9.07
2019-02-09T11:40:35.476Z,9.20
2019-02-09T11:43:07.358Z,9.32
2019-02-09T11:45:38.750Z,9.34
2019-02-09T11:48:09.447Z,9.44
2019-02-09T11:50:40.042Z,9.60
2019-02-09T11:53:10.631Z,9.56
2019-02-09T11:55:41.244Z,9.67
2019-02-09T11:58:11.819Z,9.70
2019-02-09T12:00:49.756Z,9.80
2019-02-09T12:03:20.268Z,9.70
2019-02-09T12:05:50.854Z,9.78
2019-02-09T12:08:21.542Z,9.75
2019-02-09T12:10:52.095Z,9.79
2019-02-09T12:13:22.659Z,9.86
2019-02-09T12:15:53.234Z,9.75
2019-02-09T12:18:23.803Z,9.68
2019-02-09T12:20:54.329Z,9.49
2019-02-09T12:23:24.886Z,9.55
2019-02-09T12:25:55.373Z,9.57
2019-02-09T12:28:25.924Z,9.61
2019-02-09T12:30:56.489Z,9.62
2019-02-09T12:33:26.986Z,9.48
2019-02-09T12:35:57.489Z,9.49
2019-02-09T12:38:28.076Z,9.54
2019-02-09T12:40:58.634Z,9.54
2019-02-09T12:43:29.138Z,9.52
2019-02-09T12:45:59.696Z,9.58
2019-02-09T12:48:30.234Z,9.54
2019-02-09T12:51:00.772Z,9.53
2019-02-09T12:53:31.380Z,9.50
2019-02-09T12:56:01.884Z,9.57
2019-02-09T12:58:32.454Z,9.57
2019-02-09T13:01:02.975Z,9.57
2019-02-09T13:03:33.534Z,9.72
2019-02-09T13:06:04.059Z,9.97
2019-02-09T13:08:34.644Z,9.94
2019-02-09T13:11:05.228Z,9.84
2019-02-09T13:13:35.757Z,9.85
2019-02-09T13:16:06.888Z,9.82
2019-02-09T13:18:37.458Z,9.77
2019-02-09T13:21:08.164Z,9.77
2019-02-09T13:23:38.757Z,9.71
2019-02-09T13:26:09.313Z,9.64
2019-02-09T13:28:39.837Z,9.66
2019-02-09T13:31:10.381Z,9.61
2019-02-09T13:33:40.922Z,9.79
2019-02-09T13:36:11.490Z,9.62
2019-02-09T13:38:42.027Z,9.62
2019-02-09T13:41:12.526Z,9.70
2019-02-09T13:43:43.055Z,9.67
2019-02-09T13:46:13.651Z,9.65
2019-02-09T13:48:44.135Z,9.59
2019-02-09T13:51:14.669Z,9.62
2019-02-09T13:53:45.202Z,9.66
2019-02-09T13:56:15.710Z,9.63
2019-02-09T13:58:46.257Z,9.64
2019-02-09T14:01:16.754Z,9.57
2019-02-09T14:03:47.384Z,9.64
2019-02-09T14:06:17.931Z,9.65
2019-02-09T14:08:48.563Z,9.74
2019-02-09T14:11:19.088Z,9.80
2019-02-09T14:13:49.588Z,9.81
2019-02-09T14:16:20.101Z,9.81
2019-02-09T14:18:50.627Z,9.76
2019-02-09T14:21:21.134Z,9.29
2019-02-09T14:23:51.707Z,8.47
2019-02-09T14:26:22.309Z,8.01
2019-02-09T14:28:52.820Z,7.79
2019-02-09T14:31:23.286Z,7.67
2019-02-09T14:33:55.358Z,7.64
2019-02-09T14:36:26.057Z,7.60
2019-02-09T14:38:56.602Z,7.46
2019-02-09T14:41:27.188Z,7.42
2019-02-09T14:43:57.687Z,7.27
2019-02-09T14:46:28.324Z,6.87
2019-02-09T14:48:58.830Z,6.63
2019-02-09T14:51:29.342Z,6.47
2019-02-09T14:53:59.933Z,6.32
2019-02-09T14:56:30.546Z,6.33
2019-02-09T14:59:01.040Z,6.20
2019-02-09T15:01:31.640Z,6.20
2019-02-09T15:04:03.024Z,6.20
2019-02-09T15:06:33.895Z,6.25
2019-02-09T15:09:06.044Z,6.29
2019-02-09T15:11:36.569Z,6.50
2019-02-09T15:14:07.736Z,6.47
2019-02-09T15:16:55.025Z,6.44
2019-02-09T15:19:32.611Z,6.41
2019-02-09T15:22:03.129Z,6.47
2019-02-09T15:24:33.664Z,6.49
2019-02-09T15:27:04.168Z,6.49
2019-02-09T15:29:34.761Z,6.49
2019-02-09T15:32:05.569Z,6.45
2019-02-09T15:34:36.110Z,6.49
2019-02-09T15:37:06.810Z,6.50
2019-02-09T15:39:37.317Z,6.54
2019-02-09T15:42:07.939Z,6.56
2019-02-09T15:44:38.488Z,6.51
2019-02-09T15:47:09.002Z,6.56
2019-02-09T15:49:39.840Z,6.64
2019-02-09T15:52:10.355Z,6.68
2019-02-09T15:54:40.884Z,6.63
2019-02-09T15:57:11.419Z,6.59
2019-02-09T15:59:42.004Z,6.60
2019-02-09T16:02:12.577Z,6.62
2019-02-09T16:04:43.062Z,6.59
2019-02-09T16:07:13.637Z,6.55
2019-02-09T16:09:44.208Z,6.61
2019-02-09T16:12:14.758Z,6.63
2019-02-09T16:14:45.365Z,6.63
2019-02-09T16:17:15.835Z,6.60
2019-02-09T16:19:46.371Z,6.58
2019-02-09T16:22:16.934Z,6.63
2019-02-09T16:24:47.437Z,6.73
2019-02-09T16:27:18.141Z,6.79
2019-02-09T16:29:48.703Z,6.86
2019-02-09T16:32:19.266Z,7.01
2019-02-09T16:34:51.303Z,6.94
2019-02-09T16:37:22.108Z,6.95
2019-02-09T16:39:52.780Z,7.12
2019-02-09T16:42:23.393Z,7.12
2019-02-09T16:44:53.916Z,7.10
2019-02-09T16:47:24.481Z,7.16
2019-02-09T16:49:54.978Z,7.13
2019-02-09T16:52:25.861Z,7.17
2019-02-09T16:54:56.485Z,7.12
2019-02-09T16:57:26.999Z,7.21
2019-02-09T16:59:57.534Z,7.20
2019-02-09T17:02:28.148Z,7.22
2019-02-09T17:04:59.779Z,7.12
2019-02-09T17:07:30.469Z,7.09
2019-02-09T17:10:01.024Z,7.05
2019-02-09T17:12:31.511Z,6.96
2019-02-09T17:15:02.052Z,6.87
2019-02-09T17:17:32.574Z,6.76
2019-02-09T17:20:03.089Z,6.73
2019-02-09T17:22:33.690Z,6.64
2019-02-09T17:25:04.605Z,6.56
2019-02-09T17:27:35.139Z,6.50
2019-02-09T17:30:15.861Z,6.49
2019-02-09T17:32:46.435Z,6.53
2019-02-09T17:35:16.979Z,6.45
2019-02-09T17:37:47.650Z,6.43
2019-02-09T17:40:21.452Z,6.45
2019-02-09T17:42:53.403Z,6.41
2019-02-09T17:45:28.222Z,6.37
2019-02-09T17:47:58.749Z,6.34
2019-02-09T17:50:29.384Z,6.27
2019-02-09T17:53:00.317Z,6.16
2019-02-09T17:55:30.996Z,6.12
2019-02-09T17:58:01.646Z,6.07
2019-02-09T18:00:54.318Z,6.04
2019-02-09T18:03:24.800Z,6.02
2019-02-09T18:05:55.341Z,5.98
2019-02-09T18:08:25.881Z,6.00
2019-02-09T18:10:56.466Z,6.00
2019-02-09T18:13:26.992Z,6.06
2019-02-09T18:15:57.672Z,6.14
2019-02-09T18:18:28.213Z,6.03
2019-02-09T18:20:58.751Z,6.12
2019-02-09T18:23:29.336Z,6.16
2019-02-09T18:26:00.117Z,6.21
2019-02-09T18:28:30.679Z,6.23
2019-02-09T18:31:01.240Z,6.27
2019-02-09T18:33:31.735Z,6.28
2019-02-09T18:36:02.248Z,6.33
2019-02-09T18:38:32.862Z,6.37
2019-02-09T18:41:03.335Z,6.36
2019-02-09T18:43:33.867Z,6.35
2019-02-09T18:46:04.715Z,6.39
2019-02-09T18:48:36.282Z,6.35
2019-02-09T18:51:06.874Z,6.44
2019-02-09T18:53:37.472Z,6.50
2019-02-09T18:56:07.962Z,6.57
2019-02-09T18:58:38.528Z,6.56
2019-02-09T19:01:09.240Z,6.62
2019-02-09T19:03:39.805Z,6.66
2019-02-09T19:06:10.416Z,6.70
2019-02-09T19:08:40.983Z,6.71
2019-02-09T19:11:11.475Z,6.99
2019-02-09T19:13:41.998Z,6.77
2019-02-09T19:16:12.534Z,6.72
2019-02-09T19:18:43.079Z,6.83
2019-02-09T19:21:16.819Z,6.94
2019-02-09T19:23:47.358Z,6.91
2019-02-09T19:26:17.918Z,6.95
2019-02-09T19:28:48.488Z,7.07
2019-02-09T19:31:19.104Z,7.16
2019-02-09T19:33:49.998Z,7.18
2019-02-09T19:36:20.591Z,7.11
2019-02-09T19:38:51.061Z,7.28
2019-02-09T19:41:21.619Z,7.25
2019-02-09T19:43:52.230Z,7.32
2019-02-09T19:46:25.619Z,7.38
2019-02-09T19:48:56.143Z,7.43
2019-02-09T19:51:26.700Z,7.41
2019-02-09T19:53:57.268Z,7.40
2019-02-09T19:56:27.833Z,7.62
2019-02-09T19:58:58.573Z,7.62
2019-02-09T20:01:29.006Z,7.68
2019-02-09T20:03:59.511Z,7.67
2019-02-09T20:06:30.021Z,7.64
2019-02-09T20:09:00.526Z,7.61
2019-02-09T20:11:31.057Z,7.66
2019-02-09T20:14:01.584Z,7.63
2019-02-09T20:16:32.123Z,7.70
2019-02-09T20:19:02.673Z,7.74
2019-02-09T20:21:33.192Z,7.79
2019-02-09T20:24:03.720Z,7.78
2019-02-09T20:26:34.302Z,7.80
2019-02-09T20:29:05.005Z,7.80
2019-02-09T20:31:35.551Z,7.77
2019-02-09T20:34:06.156Z,7.80
2019-02-09T20:36:37.619Z,7.82
2019-02-09T20:39:10.315Z,7.80
2019-02-09T20:41:41.100Z,7.86
2019-02-09T20:44:11.695Z,7.82
2019-02-09T20:46:42.164Z,7.82
2019-02-09T20:49:12.711Z,7.82
2019-02-09T20:51:43.340Z,7.80
2019-02-09T20:54:13.908Z,7.84
2019-02-09T20:56:44.389Z,7.90
2019-02-09T20:59:14.966Z,7.90
2019-02-09T21:01:45.439Z,7.87
2019-02-09T21:04:15.978Z,7.94
2019-02-09T21:06:46.544Z,7.91
2019-02-09T21:09:17.007Z,7.89
2019-02-09T21:11:47.523Z,7.91
2019-02-09T21:14:18.030Z,7.89
2019-02-09T21:16:51.707Z,7.96
2019-02-09T21:19:21.010Z,7.91
2019-02-09T21:21:51.605Z,7.92
2019-02-09T21:24:22.165Z,7.94
2019-02-09T21:26:52.835Z,8.03
2019-02-09T21:29:23.422Z,7.96
2019-02-09T21:31:53.869Z,7.98
2019-02-09T21:34:24.453Z,7.96
2019-02-09T21:36:55.340Z,7.94
2019-02-09T21:39:33.495Z,7.95
2019-02-09T21:41:59.063Z,7.90
2019-02-09T21:44:29.679Z,7.92
2019-02-09T21:47:00.248Z,7.94
2019-02-09T21:49:30.848Z,7.90
2019-02-09T21:52:01.364Z,7.84
2019-02-09T22:05:08.719Z,7.78
2019-02-09T22:07:39.260Z,7.79
2019-02-09T22:10:12.570Z,7.79
2019-02-09T22:12:44.086Z,7.75
2019-02-09T22:15:14.990Z,7.74
2019-02-09T22:17:45.564Z,7.71
2019-02-09T22:20:17.575Z,7.72
2019-02-09T22:22:48.768Z,7.77
2019-02-09T22:25:21.684Z,7.71
2019-02-09T22:27:55.269Z,7.70
2019-02-09T22:30:28.254Z,7.65
2019-02-09T22:32:59.716Z,7.65
2019-02-09T22:35:30.973Z,7.59
2019-02-09T22:38:01.612Z,7.55
2019-02-09T22:40:34.372Z,7.51
2019-02-09T22:43:06.147Z,7.52
2019-02-09T22:45:37.022Z,7.51
2019-02-09T22:48:09.660Z,7.43
2019-02-09T22:50:43.876Z,7.41
2019-02-09T22:53:14.531Z,7.45
2019-02-09T22:55:45.645Z,7.40
2019-02-09T22:58:16.200Z,7.29
2019-02-09T23:01:37.050Z,7.25
2019-02-09T23:05:00.552Z,7.27
2019-02-09T23:07:34.156Z,7.27
2019-02-09T23:10:10.593Z,7.33
2019-02-09T23:12:48.312Z,7.33
2019-02-09T23:15:13.377Z,7.34
2019-02-09T23:17:43.944Z,7.31
2019-02-09T23:20:14.536Z,7.28
2019-02-09T23:22:45.025Z,7.19
2019-02-09T23:25:15.561Z,7.12
2019-02-09T23:27:46.081Z,7.13
2019-02-09T23:30:16.647Z,7.09
2019-02-09T23:32:47.110Z,7.07
2019-02-09T23:35:17.656Z,7.13
2019-02-09T23:37:48.187Z,7.11
2019-02-09T23:40:18.821Z,7.04
2019-02-09T23:42:49.320Z,7.11
2019-02-09T23:45:19.920Z,7.20
2019-02-09T23:47:50.437Z,7.23
2019-02-09T23:50:21.005Z,7.27
2019-02-09T23:52:51.528Z,7.30
2019-02-09T23:55:22.115Z,7.32
2019-02-09T23:57:52.683Z,7.34
